Time;durP1;ratioP1;P1;durP2;ratioP2;P2;SDS_P1;SDS_P2;PMS_P1;PMS_P2;Temp;Humidity;BMP_temperature;BMP_pressure;BME280_temperature;BME280_humidity;BME280_pressure;Samples;Min_cycle;Max_cycle;Signal;HPM_P1;HPM_P2
2022/06/07 00:01:39;;;;;;;1.50;0.68;;;;;;;15.96;90.47;100517.31;5211416;28;20044;-74
2022/06/07 00:04:09;;;;;;;2.15;1.00;;;;;;;15.95;89.96;100509.47;5227900;28;20410;-75
2022/06/07 00:06:40;;;;;;;2.13;0.73;;;;;;;15.92;90.66;100517.56;5207933;28;20034;-75
2022/06/07 00:09:10;;;;;;;2.80;0.85;;;;;;;15.76;91.00;100514.97;5230856;28;20021;-72
2022/06/07 00:11:40;;;;;;;2.42;0.90;;;;;;;15.57;93.47;100516.09;5232435;28;20048;-75
2022/06/07 00:14:10;;;;;;;2.05;0.80;;;;;;;15.56;93.10;100509.97;5225384;28;20443;-72
2022/06/07 00:16:41;;;;;;;2.78;0.70;;;;;;;15.40;94.66;100509.13;5223571;28;20033;-75
2022/06/07 00:19:11;;;;;;;1.73;0.75;;;;;;;15.26;96.09;100513.44;5208372;28;20392;-74
2022/06/07 00:21:42;;;;;;;1.90;0.90;;;;;;;15.36;94.16;100506.78;5226936;28;20017;-75
2022/06/07 00:24:13;;;;;;;2.65;0.80;;;;;;;15.24;96.05;100521.47;5229696;28;20119;-75
2022/06/07 00:26:43;;;;;;;3.05;0.98;;;;;;;15.07;96.34;100511.00;5226308;28;20034;-75
2022/06/07 00:29:14;;;;;;;2.60;0.70;;;;;;;14.81;98.69;100501.97;5213253;28;20260;-74
2022/06/07 00:31:45;;;;;;;1.65;0.70;;;;;;;14.34;100.00;100508.88;5232694;28;20367;-75
2022/06/07 00:34:15;;;;;;;2.63;0.90;;;;;;;14.39;99.31;100509.50;5230077;28;20478;-75
2022/06/07 00:36:46;;;;;;;4.32;0.70;;;;;;;14.20;100.00;100508.72;5225733;28;20016;-75
2022/06/07 00:39:17;;;;;;;5.63;0.75;;;;;;;13.88;100.00;100506.88;5213626;28;20032;-75
2022/06/07 00:41:47;;;;;;;2.97;1.10;;;;;;;13.68;100.00;100509.63;5209287;28;20063;-75
2022/06/07 00:44:17;;;;;;;3.17;0.93;;;;;;;13.81;100.00;100500.22;5226475;28;20040;-75
2022/06/07 00:46:49;;;;;;;4.35;0.90;;;;;;;13.86;100.00;100495.56;5217498;28;20418;-75
2022/06/07 00:49:21;;;;;;;2.35;0.90;;;;;;;13.84;100.00;100500.06;5221124;28;20032;-74
2022/06/07 00:51:52;;;;;;;1.25;0.80;;;;;;;13.86;100.00;100495.56;5225713;28;20032;-75
2022/06/07 00:54:31;;;;;;;3.00;0.85;;;;;;;13.81;100.00;100497.59;5225805;28;20037;-75
2022/06/07 00:57:02;;;;;;;2.95;1.08;;;;;;;13.72;100.00;100493.63;5226744;28;20032;-75
2022/06/07 00:59:33;;;;;;;1.75;0.80;;;;;;;13.70;100.00;100492.00;5223399;28;20284;-75
2022/06/07 01:02:04;;;;;;;2.47;0.82;;;;;;;13.54;100.00;100486.66;5228906;28;20028;-74
2022/06/07 01:04:35;;;;;;;4.68;1.00;;;;;;;13.50;100.00;100479.00;5212168;28;20493;-75
2022/06/07 01:12:44;;;;;;;1.98;1.02;;;;;;;13.61;100.00;100482.81;5229895;28;20035;-75
2022/06/07 01:15:14;;;;;;;3.20;0.95;;;;;;;13.66;100.00;100477.31;5231305;28;20020;-75
2022/06/07 01:17:45;;;;;;;1.27;0.73;;;;;;;13.51;100.00;100475.44;5229365;28;20509;-75
2022/06/07 01:20:15;;;;;;;3.83;0.95;;;;;;;13.02;100.00;100466.47;5227529;28;20059;-74
2022/06/07 01:22:45;;;;;;;3.00;1.00;;;;;;;12.95;100.00;100464.22;5229835;28;20490;-75
2022/06/07 01:25:16;;;;;;;3.00;0.95;;;;;;;12.99;100.00;100468.38;5229705;28;20142;-75
2022/06/07 01:27:46;;;;;;;2.70;1.10;;;;;;;13.05;100.00;100460.25;5212016;28;20503;-75
2022/06/07 01:30:17;;;;;;;2.47;0.95;;;;;;;13.13;100.00;100458.09;5212545;28;20111;-75
2022/06/07 01:32:47;;;;;;;2.85;1.13;;;;;;;13.27;100.00;100451.25;5229938;28;20028;-75
2022/06/07 01:35:17;;;;;;;3.58;1.10;;;;;;;13.42;100.00;100455.75;5230511;28;20033;-75
2022/06/07 01:37:48;;;;;;;3.25;0.90;;;;;;;13.18;100.00;100451.69;5230263;28;20029;-75
2022/06/07 01:43:07;;;;;;;4.28;1.00;;;;;;;13.28;100.00;100450.34;5230698;28;20040;-75
2022/06/07 01:45:37;;;;;;;4.82;0.93;;;;;;;13.24;100.00;100450.56;5229486;28;20600;-75
2022/06/07 01:48:07;;;;;;;4.50;1.00;;;;;;;13.28;100.00;100446.84;5230472;28;20106;-74
2022/06/07 01:50:38;;;;;;;2.80;1.00;;;;;;;13.20;100.00;100452.47;5228469;28;20540;-75
2022/06/07 01:53:09;;;;;;;2.17;0.90;;;;;;;13.11;100.00;100449.44;5231725;28;20028;-75
2022/06/07 01:55:39;;;;;;;3.90;1.15;;;;;;;13.20;100.00;100455.09;5211286;28;20070;-75
2022/06/07 01:58:09;;;;;;;2.45;1.05;;;;;;;13.40;100.00;100464.66;5230964;28;20024;-75
2022/06/07 02:00:40;;;;;;;1.75;0.85;;;;;;;13.55;100.00;100471.78;5232281;28;20051;-75
2022/06/07 02:03:10;;;;;;;2.97;1.20;;;;;;;13.86;100.00;100469.28;5229942;28;20033;-71
2022/06/07 02:05:40;;;;;;;2.53;1.05;;;;;;;14.00;100.00;100472.06;5229490;28;20025;-75
2022/06/07 02:08:10;;;;;;;3.75;1.33;;;;;;;13.97;100.00;100461.72;5230297;28;20275;-75
2022/06/07 02:10:41;;;;;;;2.63;1.23;;;;;;;13.92;100.00;100458.50;5228291;28;20025;-75
2022/06/07 02:13:11;;;;;;;5.05;1.17;;;;;;;13.93;100.00;100465.44;5227736;28;20025;-74
2022/06/07 02:18:14;;;;;;;2.53;1.25;;;;;;;13.99;100.00;100458.09;5194829;28;20046;-73
2022/06/07 02:20:44;;;;;;;2.88;1.23;;;;;;;13.90;100.00;100457.72;5198945;28;20036;-74
2022/06/07 02:23:15;;;;;;;3.28;1.00;;;;;;;13.66;100.00;100449.31;5199603;28;20026;-73
2022/06/07 02:25:49;;;;;;;5.00;1.10;;;;;;;13.40;100.00;100456.78;5207069;28;20029;-73
2022/06/07 02:28:24;;;;;;;3.33;1.17;;;;;;;13.13;100.00;100456.31;5209091;28;20022;-74
2022/06/07 02:30:58;;;;;;;2.42;1.27;;;;;;;13.10;100.00;100447.75;5209002;28;20402;-73
2022/06/07 02:33:28;;;;;;;2.83;1.20;;;;;;;13.03;100.00;100446.34;5211899;28;20032;-74
2022/06/07 02:35:59;;;;;;;1.40;1.00;;;;;;;13.11;100.00;100439.81;5212326;28;20025;-73
2022/06/07 02:38:30;;;;;;;1.65;1.02;;;;;;;13.18;100.00;100440.34;5212370;28;20091;-74
2022/06/07 02:41:04;;;;;;;3.33;1.70;;;;;;;13.01;100.00;100445.53;5211929;28;20104;-74
2022/06/07 02:43:34;;;;;;;3.88;1.50;;;;;;;12.98;100.00;100454.44;5211218;28;20051;-73
2022/06/07 02:46:04;;;;;;;4.30;1.48;;;;;;;12.91;100.00;100441.63;5215196;28;20029;-72
2022/06/07 02:48:35;;;;;;;4.68;1.23;;;;;;;12.64;100.00;100449.94;5210390;28;20033;-73
2022/06/07 02:51:05;;;;;;;4.65;1.30;;;;;;;12.75;100.00;100442.41;5205511;28;20029;-74
2022/06/07 02:53:36;;;;;;;2.92;1.27;;;;;;;12.89;100.00;100443.50;5214602;28;20554;-73
2022/06/07 02:56:06;;;;;;;3.08;1.20;;;;;;;12.96;100.00;100434.44;5194234;28;20329;-73
2022/06/07 02:58:36;;;;;;;5.00;1.35;;;;;;;12.96;100.00;100434.44;5211743;28;20303;-74
2022/06/07 03:01:07;;;;;;;2.20;1.00;;;;;;;13.10;100.00;100429.38;5205785;28;20442;-73
2022/06/07 03:03:38;;;;;;;3.47;1.33;;;;;;;13.19;100.00;100428.91;5214737;28;20112;-73
2022/06/07 03:06:09;;;;;;;4.07;1.80;;;;;;;13.24;100.00;100419.06;5211710;28;20479;-73
2022/06/07 03:08:39;;;;;;;2.75;1.67;;;;;;;13.41;100.00;100424.34;5210555;28;20078;-74
2022/06/07 03:11:09;;;;;;;4.70;1.73;;;;;;;13.14;100.00;100425.69;5211856;28;20102;-74
2022/06/07 03:13:40;;;;;;;3.50;1.75;;;;;;;13.00;100.00;100428.09;5209017;28;20499;-74
2022/06/07 03:16:10;;;;;;;7.55;1.75;;;;;;;13.01;100.00;100427.19;5214027;28;20031;-73
2022/06/07 03:18:41;;;;;;;3.72;2.20;;;;;;;13.03;100.00;100425.34;5210169;28;20029;-73
2022/06/07 03:21:11;;;;;;;5.72;2.30;;;;;;;13.06;100.00;100430.47;5207566;28;20048;-73
2022/06/07 03:23:41;;;;;;;3.42;1.77;;;;;;;13.20;100.00;100430.66;5212129;28;20272;-74
2022/06/07 03:26:13;;;;;;;4.18;1.80;;;;;;;13.21;100.00;100427.94;5212718;28;20033;-72
2022/06/07 03:28:43;;;;;;;3.15;1.77;;;;;;;13.12;100.00;100423.13;5210120;28;20467;-73
2022/06/07 03:31:16;;;;;;;3.13;1.85;;;;;;;13.26;100.00;100427.72;5205962;28;20037;-73
2022/06/07 03:33:47;;;;;;;4.95;2.30;;;;;;;13.48;100.00;100423.97;5213267;28;20421;-73
2022/06/07 03:36:21;;;;;;;7.03;2.17;;;;;;;13.47;100.00;100426.66;5212274;28;20021;-73
2022/06/07 03:38:52;;;;;;;7.00;2.20;;;;;;;13.39;100.00;100415.69;5208925;28;20025;-74
2022/06/07 03:41:26;;;;;;;4.38;2.13;;;;;;;13.24;100.00;100417.28;5210998;28;20099;-73
2022/06/07 03:43:56;;;;;;;5.35;2.00;;;;;;;13.14;100.00;100423.06;5213053;28;20104;-73
2022/06/07 03:46:28;;;;;;;3.10;1.90;;;;;;;13.14;100.00;100417.81;5210324;28;20120;-73
2022/06/07 03:48:59;;;;;;;7.05;2.13;;;;;;;12.96;100.00;100417.84;5210333;28;20395;-73
2022/06/07 03:51:31;;;;;;;7.05;2.00;;;;;;;12.83;100.00;100412.28;5206464;28;20036;-73
2022/06/07 03:54:02;;;;;;;5.32;1.70;;;;;;;12.69;100.00;100409.47;5210422;28;20361;-74
2022/06/07 03:56:33;;;;;;;3.75;1.88;;;;;;;12.68;100.00;100418.28;5205869;28;20024;-73
2022/06/07 03:59:04;;;;;;;3.45;1.92;;;;;;;12.73;100.00;100413.66;5210006;28;20087;-73
2022/06/07 04:01:35;;;;;;;3.25;1.70;;;;;;;12.70;100.00;100416.44;5207809;28;20029;-73
2022/06/07 04:04:08;;;;;;;4.18;1.83;;;;;;;12.87;100.00;100406.00;5209887;28;20410;-73
2022/06/07 04:08:10;;;;;;;3.80;1.70;;;;;;;12.88;100.00;100405.06;5212537;28;20044;-74
2022/06/07 04:09:39;;;;;;;3.38;1.98;;;;;;;13.12;100.00;100409.16;5202288;28;20087;-74
2022/06/07 04:12:14;;;;;;;6.07;1.95;;;;;;;13.31;100.00;100409.97;5212984;28;20052;-73
2022/06/07 04:14:46;;;;;;;;;;;;;;;13.46;100.00;100403.94;5212298;28;20021;-74
2022/06/07 04:17:16;;;;;;;4.13;1.70;;;;;;;13.27;100.00;100413.66;5211456;28;19919;-73
2022/06/07 04:19:46;;;;;;;4.82;1.50;;;;;;;13.55;100.00;100404.34;5207452;28;20029;-74
2022/06/07 04:22:17;;;;;;;2.97;1.60;;;;;;;13.41;100.00;100409.41;5209170;28;20038;-74
2022/06/07 04:24:47;;;;;;;2.95;1.73;;;;;;;13.18;100.00;100408.84;5211581;28;20494;-74
2022/06/07 04:27:18;;;;;;;5.68;1.92;;;;;;;13.30;100.00;100409.13;5204112;28;20032;-72
2022/06/07 04:29:48;;;;;;;4.57;2.03;;;;;;;13.42;100.00;100399.78;5205890;28;20471;-73
2022/06/07 04:32:20;;;;;;;5.03;1.80;;;;;;;13.46;100.00;100398.69;5208399;28;20048;-74
2022/06/07 04:34:51;;;;;;;4.90;1.90;;;;;;;13.57;100.00;100401.66;5211328;28;20048;-74
2022/06/07 04:37:23;;;;;;;2.88;1.70;;;;;;;14.34;100.00;100396.69;5211375;28;20118;-74
2022/06/07 04:39:54;;;;;;;3.85;1.70;;;;;;;15.54;100.00;100393.31;5207077;28;20040;-74
2022/06/07 04:42:24;;;;;;;2.53;1.58;;;;;;;16.48;95.90;100402.50;5210278;28;20425;-74
2022/06/07 04:44:55;;;;;;;3.53;1.13;;;;;;;18.26;94.00;100386.97;5212269;28;20033;-74
2022/06/07 04:47:25;;;;;;;2.97;1.15;;;;;;;18.64;86.69;100387.78;5209411;28;20036;-74
2022/06/07 04:49:55;;;;;;;2.45;0.90;;;;;;;20.57;76.68;100387.06;5206242;28;20013;-74
2022/06/07 04:52:26;;;;;;;1.45;0.93;;;;;;;20.41;79.02;100386.59;5209290;28;20025;-74
2022/06/07 04:54:56;;;;;;;2.28;1.10;;;;;;;21.47;75.28;100377.81;5210480;28;20112;-74
2022/06/07 04:57:29;;;;;;;2.38;1.10;;;;;;;22.13;72.08;100385.44;5211133;28;20029;-74
2022/06/07 04:59:59;;;;;;;3.38;1.20;;;;;;;22.70;69.68;100375.88;5203018;28;20418;-74
2022/06/07 05:02:29;;;;;;;2.40;0.90;;;;;;;23.20;69.49;100385.56;5209859;28;20036;-74
2022/06/07 05:05:00;;;;;;;2.97;1.20;;;;;;;22.29;71.53;100377.78;5209235;28;20029;-75
2022/06/07 05:07:32;;;;;;;2.17;1.15;;;;;;;23.47;69.45;100380.38;5212717;28;20074;-74
2022/06/07 05:10:07;;;;;;;2.20;1.15;;;;;;;23.97;66.58;100381.91;5203431;28;20553;-74
2022/06/07 05:12:38;;;;;;;2.95;1.00;;;;;;;22.96;70.12;100377.06;5208479;28;20467;-74
2022/06/07 05:15:09;;;;;;;2.97;1.10;;;;;;;23.47;68.96;100376.84;5211563;28;20043;-75
2022/06/07 05:17:39;;;;;;;2.78;1.25;;;;;;;23.15;69.46;100373.63;5209421;28;20605;-74
2022/06/07 05:20:10;;;;;;;3.23;1.10;;;;;;;23.60;68.42;100367.59;5205246;28;20032;-74
2022/06/07 05:22:40;;;;;;;3.05;1.30;;;;;;;23.38;67.76;100370.53;5209788;28;20786;-74
2022/06/07 05:25:10;;;;;;;1.90;1.20;;;;;;;24.50;65.57;100368.78;5210338;28;20512;-74
2022/06/07 05:27:46;;;;;;;2.83;1.10;;;;;;;24.26;65.36;100374.69;5202361;28;20069;-74
2022/06/07 05:30:17;;;;;;;3.25;1.17;;;;;;;23.81;66.50;100370.94;5202969;28;20441;-74
2022/06/07 05:32:47;;;;;;;1.70;1.10;;;;;;;23.37;69.10;100368.84;5208816;28;20108;-74
2022/06/07 05:35:17;;;;;;;1.90;0.93;;;;;;;22.81;70.82;100373.13;5210546;28;20040;-74
2022/06/07 05:37:48;;;;;;;3.83;1.15;;;;;;;22.88;69.83;100374.25;5210047;28;20389;-74
2022/06/07 05:40:18;;;;;;;2.65;1.20;;;;;;;24.62;66.41;100363.16;5188304;28;20029;-74
2022/06/07 05:42:48;;;;;;;2.78;1.00;;;;;;;24.10;66.49;100370.91;5210236;28;20033;-74
2022/06/07 05:45:19;;;;;;;1.92;1.05;;;;;;;23.63;67.13;100369.13;5209445;28;20441;-73
2022/06/07 05:47:49;;;;;;;1.98;0.90;;;;;;;24.03;66.28;100367.97;5210111;28;20051;-73
2022/06/07 05:50:19;;;;;;;2.67;1.00;;;;;;;21.57;74.21;100375.22;5204286;28;20025;-73
2022/06/07 05:52:50;;;;;;;5.78;1.00;;;;;;;22.26;71.57;100366.56;5207334;28;20090;-73
2022/06/07 05:55:20;;;;;;;3.35;1.05;;;;;;;21.57;74.64;100370.72;5210744;28;20032;-73
2022/06/07 05:57:54;;;;;;;1.80;1.30;;;;;;;21.68;74.73;100372.50;5191300;28;20029;-73
2022/06/07 06:00:24;;;;;;;3.00;1.10;;;;;;;21.49;75.95;100375.84;5202635;28;20268;-74
2022/06/07 06:02:55;;;;;;;3.95;1.23;;;;;;;20.78;79.07;100380.03;5207986;28;20028;-74
2022/06/07 06:05:25;;;;;;;2.40;0.93;;;;;;;21.33;77.73;100379.91;5211321;28;20033;-73
2022/06/07 06:10:44;;;;;;;4.72;1.20;;;;;;;21.12;76.85;100385.19;5211465;28;20403;-73
2022/06/07 06:13:15;;;;;;;3.45;1.00;;;;;;;21.31;76.63;100385.38;5214658;28;20392;-73
2022/06/07 06:15:46;;;;;;;6.85;1.00;;;;;;;21.77;72.34;100377.06;5214329;28;20030;-73
2022/06/07 06:18:16;;;;;;;3.83;1.05;;;;;;;22.26;71.91;100380.72;5209430;28;20457;-73
2022/06/07 06:20:47;;;;;;;4.85;1.00;;;;;;;21.45;72.64;100384.22;5206150;28;20040;-73
2022/06/07 06:23:17;;;;;;;2.70;1.02;;;;;;;22.53;68.59;100375.69;5196221;28;20047;-73
2022/06/07 06:25:47;;;;;;;4.03;1.00;;;;;;;22.28;69.11;100373.44;5213816;28;20068;-74
2022/06/07 06:28:19;;;;;;;2.95;0.82;;;;;;;23.14;67.00;100374.59;5214215;28;20028;-73
2022/06/07 06:30:49;;;;;;;1.40;0.80;;;;;;;23.16;65.20;100360.16;5206848;28;20021;-73
2022/06/07 06:33:20;;;;;;;2.15;1.00;;;;;;;23.74;64.73;100369.81;5207417;28;20441;-73
2022/06/07 06:35:53;;;;;;;2.45;0.80;;;;;;;23.05;66.08;100375.41;5207650;28;20025;-74
2022/06/07 06:38:24;;;;;;;2.50;0.90;;;;;;;23.01;64.47;100368.66;5206456;28;20033;-73
2022/06/07 06:40:54;;;;;;;4.07;0.90;;;;;;;22.90;66.15;100364.31;5213939;28;20031;-73
2022/06/07 06:43:24;;;;;;;3.30;0.90;;;;;;;23.52;64.56;100356.78;5212316;28;20053;-73
2022/06/07 06:46:03;;;;;;;1.90;0.80;;;;;;;23.96;62.52;100361.53;5214294;28;20036;-73
2022/06/07 06:48:34;;;;;;;4.32;0.85;;;;;;;23.59;63.91;100362.41;5208156;28;20218;-74
2022/06/07 06:51:06;;;;;;;2.60;0.80;;;;;;;24.02;64.50;100362.81;5204168;28;20030;-71
2022/06/07 06:53:37;;;;;;;4.43;0.80;;;;;;;25.10;59.41;100355.66;5214537;28;20070;-73
2022/06/07 06:56:09;;;;;;;2.33;0.60;;;;;;;24.94;61.90;100348.31;5212163;28;20026;-74
2022/06/07 06:58:41;;;;;;;3.53;0.82;;;;;;;23.44;63.09;100350.47;5211481;28;20026;-74
2022/06/07 07:01:18;;;;;;;4.90;0.98;;;;;;;24.88;61.28;100348.06;5205847;28;20380;-73
2022/06/07 07:03:49;;;;;;;3.35;0.57;;;;;;;24.46;61.36;100344.22;5195418;28;20028;-73
2022/06/07 07:06:20;;;;;;;2.97;0.80;;;;;;;25.79;58.21;100351.28;5212894;28;20467;-74
2022/06/07 07:08:51;;;;;;;4.18;0.52;;;;;;;26.18;56.24;100345.41;5210363;28;20355;-74
2022/06/07 07:11:27;;;;;;;3.00;0.70;;;;;;;25.50;56.25;100346.22;5211835;28;20044;-74
2022/06/07 07:13:59;;;;;;;2.08;0.70;;;;;;;25.64;56.39;100342.16;5197037;28;20036;-74
2022/06/07 07:16:31;;;;;;;2.92;0.73;;;;;;;25.93;57.38;100342.72;5191775;28;20032;-73
2022/06/07 07:19:03;;;;;;;3.53;0.82;;;;;;;25.68;57.10;100346.22;5205803;28;20422;-74
2022/06/07 07:21:36;;;;;;;3.40;0.70;;;;;;;26.50;55.69;100342.91;5205836;28;20033;-74
2022/06/07 07:24:09;;;;;;;1.55;0.65;;;;;;;26.47;54.56;100343.22;5214884;28;20071;-74
2022/06/07 07:26:45;;;;;;;2.13;0.60;;;;;;;25.37;53.86;100336.91;5211754;28;20530;-74
2022/06/07 07:29:18;;;;;;;1.77;0.60;;;;;;;25.98;54.03;100338.56;5209233;28;20022;-73
2022/06/07 07:31:49;;;;;;;1.45;0.75;;;;;;;25.00;55.77;100344.22;5205918;28;20056;-74
2022/06/07 07:34:21;;;;;;;1.17;0.50;;;;;;;25.74;54.94;100334.84;5211536;28;20458;-74
2022/06/07 07:36:57;;;;;;;2.15;0.65;;;;;;;25.53;55.70;100334.38;5211952;28;20059;-74
2022/06/07 07:39:28;;;;;;;3.55;0.70;;;;;;;26.50;53.95;100339.41;5209135;28;20090;-74
2022/06/07 07:41:58;;;;;;;1.33;0.60;;;;;;;27.77;52.42;100342.38;5213671;28;20033;-74
2022/06/07 07:44:28;;;;;;;0.93;0.40;;;;;;;27.48;53.04;100331.25;5210722;28;20060;-74
2022/06/07 07:46:59;;;;;;;1.05;0.70;;;;;;;27.87;50.95;100331.44;5214057;28;20676;-74
2022/06/07 07:49:30;;;;;;;2.20;0.40;;;;;;;28.15;53.95;100344.31;5207639;28;20021;-74
2022/06/07 07:52:00;;;;;;;1.38;0.50;;;;;;;27.29;51.76;100338.81;5206690;28;20370;-74
2022/06/07 07:54:31;;;;;;;2.25;0.80;;;;;;;26.65;51.12;100343.16;5214020;28;20020;-74
2022/06/07 07:57:01;;;;;;;2.72;1.00;;;;;;;26.50;51.24;100336.72;5210071;28;20321;-74
2022/06/07 07:59:31;;;;;;;1.52;0.73;;;;;;;26.57;51.71;100343.97;5190009;28;20513;-74
2022/06/07 08:02:02;;;;;;;3.43;0.77;;;;;;;29.06;49.18;100327.50;5207055;28;20029;-74
2022/06/07 08:04:32;;;;;;;3.00;0.73;;;;;;;28.99;50.46;100329.22;5205900;28;20264;-74
2022/06/07 08:07:03;;;;;;;1.15;0.50;;;;;;;27.55;52.12;100337.66;5213883;28;20025;-74
2022/06/07 08:09:33;;;;;;;1.40;0.60;;;;;;;26.79;52.38;100333.47;5206718;28;20032;-74
2022/06/07 08:12:06;;;;;;;3.38;0.80;;;;;;;27.27;51.63;100333.59;5211164;28;20040;-74
2022/06/07 08:14:37;;;;;;;2.83;0.65;;;;;;;28.44;49.07;100339.22;5208894;28;20036;-74
2022/06/07 08:17:07;;;;;;;4.55;1.00;;;;;;;27.48;53.32;100342.00;5244653;22;20489;-75
2022/06/07 08:19:37;;;;;;;1.40;0.60;;;;;;;28.22;51.78;100336.41;5224503;28;20437;-75
2022/06/07 08:22:09;;;;;;;3.28;0.70;;;;;;;28.88;50.21;100329.59;5226338;28;20056;-76
2022/06/07 08:24:39;;;;;;;3.35;0.75;;;;;;;28.81;50.03;100326.78;5220113;28;20096;-75
2022/06/07 08:27:10;;;;;;;2.28;0.70;;;;;;;29.07;48.67;100330.00;5223320;28;20458;-76
2022/06/07 08:29:41;;;;;;;3.45;0.80;;;;;;;29.24;48.87;100328.06;5225259;28;20021;-75
2022/06/07 08:32:11;;;;;;;2.38;0.80;;;;;;;29.84;48.17;100334.28;5226817;28;20028;-76
2022/06/07 08:37:33;;;;;;;1.48;0.70;;;;;;;30.29;49.33;100321.53;5232626;28;20033;-75
2022/06/07 08:40:18;;;;;;;2.25;0.80;;;;;;;29.22;48.22;100308.53;5223178;28;20019;-76
2022/06/07 08:42:55;;;;;;;1.52;0.60;;;;;;;29.50;49.36;100312.38;5230579;28;20260;-75
2022/06/07 08:45:34;;;;;;;2.92;0.80;;;;;;;29.42;48.42;100317.81;5211875;28;20048;-76
2022/06/07 08:48:16;;;;;;;1.85;0.65;;;;;;;30.00;47.19;100304.47;5229538;28;20442;-76
2022/06/07 08:50:59;;;;;;;1.48;0.50;;;;;;;31.07;45.82;100303.66;5223459;28;20067;-76
2022/06/07 08:53:36;;;;;;;1.58;0.60;;;;;;;30.98;44.76;100310.19;5233647;28;20492;-75
2022/06/07 08:56:15;;;;;;;4.10;0.70;;;;;;;30.49;45.58;100297.53;5226752;28;20044;-75
2022/06/07 08:58:49;;;;;;;2.17;0.60;;;;;;;30.56;46.51;100306.56;5228257;28;20024;-75
2022/06/07 09:01:43;;;;;;;0.98;0.50;;;;;;;28.84;48.09;100298.66;5225635;28;20067;-76
2022/06/07 09:04:16;;;;;;;2.40;0.70;;;;;;;30.63;44.97;100304.81;5228552;28;20024;-76
2022/06/07 09:06:50;;;;;;;2.88;0.88;;;;;;;30.55;44.78;100303.00;5231522;28;20437;-76
2022/06/07 09:12:09;;;;;;;1.40;0.60;;;;;;;31.50;43.83;100291.84;5226949;28;20397;-75
2022/06/07 09:12:20;;;;;;;1.52;0.68;;;;;;;29.87;45.67;100301.56;5221661;28;20082;-75
2022/06/07 09:15:03;;;;;;;3.15;0.50;;;;;;;30.07;44.87;100302.78;5229486;28;20051;-75
2022/06/07 09:17:37;;;;;;;3.15;0.50;;;;;;;29.91;43.87;100286.72;5232103;28;20048;-75
2022/06/07 09:20:14;;;;;;;1.83;0.70;;;;;;;29.60;47.61;100297.63;5222303;28;20031;-76
2022/06/07 09:22:54;;;;;;;0.82;0.35;;;;;;;30.25;43.41;100289.75;5212827;28;20043;-76
2022/06/07 09:25:49;;;;;;;2.10;0.30;;;;;;;29.73;43.74;100291.63;5229589;28;20055;-76
2022/06/07 09:28:28;;;;;;;0.77;0.30;;;;;;;30.17;43.56;100295.22;5227556;28;20024;-75
2022/06/07 09:31:20;;;;;;;6.47;0.50;;;;;;;30.07;43.52;100289.28;5222656;28;20555;-74
2022/06/07 09:33:56;;;;;;;3.88;0.47;;;;;;;30.52;43.46;100280.94;5230342;28;20112;-75
2022/06/07 09:36:30;;;;;;;2.50;0.40;;;;;;;28.73;45.32;100293.69;5228593;28;20449;-76
2022/06/07 09:39:06;;;;;;;2.08;0.50;;;;;;;29.59;46.04;100276.28;5228782;28;20057;-75
2022/06/07 09:41:42;;;;;;;1.00;0.40;;;;;;;28.08;47.45;100286.88;5227306;28;20595;-75
2022/06/07 09:44:16;;;;;;;1.27;0.30;;;;;;;29.55;46.73;100280.34;5213414;28;20318;-76
2022/06/07 09:47:10;;;;;;;1.98;0.50;;;;;;;28.43;48.52;100278.38;5228677;28;20542;-76
2022/06/07 09:49:47;;;;;;;1.80;0.50;;;;;;;28.87;47.07;100271.41;5215164;28;20167;-75
2022/06/07 09:52:23;;;;;;;2.40;0.60;;;;;;;29.44;47.86;100276.19;5226702;28;20027;-76
2022/06/07 09:55:38;;;;;;;0.98;0.50;;;;;;;28.57;48.01;100272.25;5211543;28;20017;-75
2022/06/07 09:58:22;;;;;;;1.80;0.50;;;;;;;28.39;48.89;100266.28;5188108;28;20075;-76
2022/06/07 10:01:00;;;;;;;1.92;0.50;;;;;;;29.23;46.91;100264.44;5221479;28;20705;-76
2022/06/07 10:03:39;;;;;;;1.13;0.35;;;;;;;29.65;48.64;100248.59;5232153;28;20032;-77
2022/06/07 10:06:15;;;;;;;3.83;0.57;;;;;;;28.97;48.86;100255.88;5229368;28;20052;-76
2022/06/07 10:08:58;;;;;;;1.77;0.70;;;;;;;28.07;50.92;100255.63;5208148;28;20059;-76
2022/06/07 10:11:39;;;;;;;1.70;0.60;;;;;;;27.87;51.62;100262.41;5210805;28;20120;-75
2022/06/07 10:14:31;;;;;;;3.00;0.60;;;;;;;27.72;49.91;100265.97;5226213;28;20035;-75
2022/06/07 10:17:33;;;;;;;0.77;0.50;;;;;;;27.70;51.54;100266.13;5227824;28;20021;-75
2022/06/07 10:20:36;;;;;;;2.17;0.70;;;;;;;27.21;51.98;100260.94;5220714;28;20025;-75
2022/06/07 10:23:28;;;;;;;2.17;0.50;;;;;;;26.37;52.28;100270.09;5224545;28;20046;-75
2022/06/07 10:26:20;;;;;;;1.52;0.50;;;;;;;25.66;53.02;100254.47;5228564;28;20107;-75
2022/06/07 10:29:26;;;;;;;3.72;0.55;;;;;;;25.86;54.30;100261.31;5226463;28;20045;-73
2022/06/07 10:32:18;;;;;;;2.83;0.60;;;;;;;26.23;53.03;100264.53;5179178;28;20032;-75
2022/06/07 10:35:00;;;;;;;1.00;0.50;;;;;;;26.57;54.54;100263.53;5210552;28;20106;-76
2022/06/07 10:38:06;;;;;;;3.10;0.73;;;;;;;26.34;53.39;100266.94;5227392;28;20530;-74
2022/06/07 10:41:04;;;;;;;1.70;0.50;;;;;;;25.64;54.09;100261.84;5157273;28;20118;-75
2022/06/07 10:43:54;;;;;;;3.70;0.50;;;;;;;25.73;56.12;100258.19;5227084;28;20090;-75
2022/06/07 10:46:27;;;;;;;2.47;0.60;;;;;;;25.52;55.99;100261.22;5228316;28;20271;-74
2022/06/07 10:49:12;;;;;;;1.95;0.73;;;;;;;26.12;56.46;100256.75;5227686;28;20029;-75
2022/06/07 10:54:44;;;;;;;3.47;0.70;;;;;;;24.75;56.50;100252.19;5229202;28;20402;-76
2022/06/07 10:57:31;;;;;;;2.40;0.70;;;;;;;25.23;54.47;100258.03;5234555;28;20407;-76
2022/06/07 11:00:34;;;;;;;2.00;0.60;;;;;;;25.36;52.97;100254.94;5231011;28;20077;-75
2022/06/07 11:03:04;;;;;;;4.80;0.52;;;;;;;25.13;57.88;100262.56;5227325;28;20037;-75
2022/06/07 11:11:33;;;;;;;2.53;0.50;;;;;;;24.70;53.28;100250.97;5228323;28;20054;-75
2022/06/07 11:14:41;;;;;;;1.70;0.40;;;;;;;25.02;54.90;100249.44;5229848;28;20070;-75
2022/06/07 11:17:44;;;;;;;1.45;0.50;;;;;;;25.20;54.83;100236.94;5221345;28;20029;-74
2022/06/07 11:20:28;;;;;;;2.05;0.47;;;;;;;25.33;53.46;100236.50;5210986;28;20166;-75
2022/06/07 11:23:19;;;;;;;2.20;0.50;;;;;;;25.13;54.79;100237.66;5217234;28;20028;-74
2022/06/07 11:26:11;;;;;;;2.38;0.50;;;;;;;25.05;54.84;100242.94;5233750;28;20044;-75
2022/06/07 11:28:41;;;;;;;1.38;0.43;;;;;;;25.27;55.65;100231.75;5228066;28;20054;-74
2022/06/07 11:31:20;;;;;;;1.53;0.63;;;;;;;24.63;53.50;100241.88;5233008;28;20052;-75
2022/06/07 11:33:51;;;;;;;2.03;0.50;;;;;;;24.77;53.22;100226.13;5233343;28;20625;-72
2022/06/07 11:36:24;;;;;;;1.17;0.68;;;;;;;25.27;52.82;100234.44;5213303;28;20147;-73
2022/06/07 11:38:57;;;;;;;0.85;0.30;;;;;;;25.86;53.30;100239.91;5233240;28;20389;-73
2022/06/07 11:41:36;;;;;;;2.25;0.40;;;;;;;26.14;52.06;100236.84;5231690;28;20032;-73
2022/06/07 11:44:12;;;;;;;1.90;0.50;;;;;;;25.68;52.70;100231.06;5224891;28;20119;-74
2022/06/07 11:46:51;;;;;;;1.33;0.50;;;;;;;25.44;53.17;100228.22;5228708;28;20060;-73
2022/06/07 11:49:22;;;;;;;0.82;0.45;;;;;;;25.67;51.26;100229.38;5232170;28;20047;-73
2022/06/07 11:51:53;;;;;;;1.88;0.55;;;;;;;25.68;52.68;100229.22;5233941;28;20025;-73
2022/06/07 11:54:38;;;;;;;1.48;0.40;;;;;;;25.28;51.82;100233.47;5233671;28;20033;-75
2022/06/07 11:57:36;;;;;;;0.95;0.40;;;;;;;25.08;52.38;100227.41;5224344;28;20497;-73
2022/06/07 12:00:19;;;;;;;1.23;0.50;;;;;;;24.30;50.71;100221.09;5227315;28;20036;-72
2022/06/07 12:03:00;;;;;;;0.85;0.40;;;;;;;24.80;51.39;100219.66;5232668;28;20477;-73
2022/06/07 12:05:46;;;;;;;1.13;0.40;;;;;;;25.15;52.25;100222.28;5230802;28;20098;-74
2022/06/07 12:08:39;;;;;;;1.50;0.52;;;;;;;25.19;52.13;100219.19;5222913;28;20071;-73
2022/06/07 12:11:27;;;;;;;0.98;0.30;;;;;;;25.42;48.04;100212.31;5229435;28;20481;-73
2022/06/07 12:14:15;;;;;;;1.45;0.47;;;;;;;25.32;48.54;100219.59;5232869;28;20031;-74
2022/06/07 12:17:17;;;;;;;1.25;0.40;;;;;;;25.23;50.32;100214.34;5226528;28;20052;-73
2022/06/07 12:19:47;;;;;;;0.63;0.30;;;;;;;25.03;50.16;100204.81;5228421;28;20394;-73
2022/06/07 12:22:21;;;;;;;1.50;0.38;;;;;;;24.99;49.47;100211.47;5232287;28;20025;-72